Ostby, North Dakota
Current Conditions -  °F | °C
As of 4:15 PM on Thursday 27 Nov 2014 (Local Time) from KRUG Reporting Station
Light Snow Light Snow  
Wind Chill: -11°   Ceiling: 200
Heat Index:   Visibility: 1.7mi
Dew Point:   Wind: 15mph
Humidity: 85%   Direction: 120°ESE
Pressure: 30.08"   Gusts: NA
Location:  48.5496°N, 100.255°W
Report Text: KRUG 272215Z AUTO 12013KT 1 3/4SM -SN BKN002 BKN011 OVC025 M14/M16 A3008 RMK AO2
Loading
Personal Weather Stations






























Interactive Weather Map New forecast layout! Learn more

10-Day Weather Forecast

Advertisements
Track Severe Weather on mobile